NCAR-RAP Real-Time Weather Data

Output produced by METARs form (12 August 2020  18:07 UTC)
found at http://weather.rap.ucar.edu/surface/
 
KSBN 121754Z COR 04005KT 10SM CLR 28/14 A3012 RMK AO2 SLPNO T02720150 $
KSBN 121654Z COR 18007KT 10SM CLR 27/14 A3012 RMK AO2 SLPNO $
KSBN 121554Z COR 05005KT 10SM CLR 27/14 A3014
KSBN 121454Z COR CLR RMK AO2 SLPNO $
KSBN 121354Z COR 07003KT 10SM CLR 22/14 A3013
KSBN 121254Z 00000KT 10SM CLR 17/14 A3013 RMK AO2 SLP191 T01720139 $
KSBN 121208Z COR 06004KT 10SM CLR 19/13 A3013
KSBN 121154Z COR 00000KT 10SM CLR 15/13 A3011 RMK AO2 SLPNO $
KSBN 121145Z 00000KT 10SM CLR 17/14 A3012
KSBN 121045Z 00000KT 10SM CLR 14/13 A3011
KSBN 120947Z 00000KT 10SM CLR 15/13 A3010
KSBN 120254Z COR 00000KT 10SM CLR 19/14 A3004 RMK AO2 SLPNO $
KSBN 120154Z COR 34004KT 10SM CLR 21/14 A3004
KSBN 120054Z COR 34005KT 10SM CLR 22/13 A3003 RMK AO2 SLPNO T02280128 $
KSBN 112354Z COR 33006KT 10SM CLR 25/13 A3002 RMK AO2 SLPNO T02500128 10278 20250 55005 $
KSBN 112254Z COR 32008KT 10SM CLR 25/13 A3001 RMK AO2 SLPNO T02720139 $
KSBN 112154Z COR 32011KT 10SM CLR 27/14 A3000 RMK AO2 SLPNO T02720128 $
KSBN 112054Z COR 34010KT 10SM CLR 27/13 A3001 RMK AO2 SLPNO T02780161 55000 $